createdAt,value
2019-01-29T00:02:19.473Z,94528.00
2019-01-29T00:04:51.363Z,94516.00
2019-01-29T00:07:23.218Z,94529.00
2019-01-29T00:09:55.085Z,94522.00
2019-01-29T00:12:26.933Z,94517.00
2019-01-29T00:14:58.806Z,94516.00
2019-01-29T00:17:30.648Z,94531.00
2019-01-29T00:20:02.519Z,94528.00
2019-01-29T00:22:34.356Z,94525.00
2019-01-29T00:25:08.570Z,94541.00
2019-01-29T00:27:40.389Z,94538.00
2019-01-29T00:30:12.502Z,94530.00
2019-01-29T00:32:44.337Z,94529.00
2019-01-29T00:35:17.190Z,94533.00
2019-01-29T00:37:49.021Z,94544.00
2019-01-29T00:40:20.884Z,94540.00
2019-01-29T00:42:52.722Z,94543.00
2019-01-29T00:45:24.609Z,94547.00
2019-01-29T00:47:56.579Z,94545.00
2019-01-29T00:50:28.485Z,94544.00
2019-01-29T00:53:00.328Z,94543.00
2019-01-29T00:55:32.326Z,94549.00
2019-01-29T00:58:04.287Z,94553.00
2019-01-29T01:00:36.186Z,94549.00
2019-01-29T01:03:08.035Z,94543.00
2019-01-29T01:05:39.909Z,94566.00
2019-01-29T01:08:11.750Z,94555.00
2019-01-29T01:10:43.722Z,94561.00
2019-01-29T01:13:15.570Z,94561.00
2019-01-29T01:15:47.481Z,94561.00
2019-01-29T01:18:19.423Z,94575.00
2019-01-29T01:20:51.339Z,94584.00
2019-01-29T01:23:23.178Z,94578.00
2019-01-29T01:25:55.052Z,94578.00
2019-01-29T01:28:26.899Z,94594.00
2019-01-29T01:30:58.776Z,94597.00
2019-01-29T01:33:30.614Z,94598.00
2019-01-29T01:36:02.474Z,94602.00
2019-01-29T01:38:34.317Z,94596.00
2019-01-29T01:41:06.199Z,94603.00
2019-01-29T01:43:38.105Z,94596.00
2019-01-29T01:46:09.981Z,94609.00
2019-01-29T01:48:41.935Z,94591.00
2019-01-29T01:51:13.813Z,94609.00
2019-01-29T01:53:45.649Z,94606.00
2019-01-29T01:56:17.530Z,94618.00
2019-01-29T01:58:49.371Z,94618.00
2019-01-29T02:01:21.265Z,94618.00
2019-01-29T02:03:53.125Z,94622.00
2019-01-29T02:06:25.008Z,94618.00
2019-01-29T02:08:56.878Z,94628.00
2019-01-29T02:11:28.746Z,94634.00
2019-01-29T02:14:00.718Z,94624.00
2019-01-29T02:16:32.697Z,94627.00
2019-01-29T02:19:04.595Z,94640.00
2019-01-29T02:21:36.506Z,94642.00
2019-01-29T02:24:08.416Z,94642.00
2019-01-29T02:26:40.328Z,94641.00
2019-01-29T02:29:12.195Z,94633.00
2019-01-29T02:31:44.088Z,94637.00
2019-01-29T02:34:16.000Z,94649.00
2019-01-29T02:36:47.882Z,94654.00
2019-01-29T02:39:19.824Z,94656.00
2019-01-29T02:41:51.689Z,94651.00
2019-01-29T02:44:23.601Z,94656.00
2019-01-29T02:46:55.473Z,94667.00
2019-01-29T02:49:27.398Z,94659.00
2019-01-29T02:51:59.269Z,94661.00
2019-01-29T02:54:31.159Z,94665.00
2019-01-29T02:57:03.148Z,94656.00
2019-01-29T02:59:35.056Z,94669.00
2019-01-29T03:02:07.204Z,94674.00
2019-01-29T03:04:39.079Z,94672.00
2019-01-29T03:07:10.998Z,94670.00
2019-01-29T03:09:43.523Z,94668.00
2019-01-29T03:12:15.898Z,94672.00
2019-01-29T03:14:47.774Z,94673.00
2019-01-29T03:17:19.691Z,94670.00
2019-01-29T03:19:51.650Z,94692.00
2019-01-29T03:22:23.580Z,94691.00
2019-01-29T03:24:55.456Z,94694.00
2019-01-29T03:27:27.369Z,94690.00
2019-01-29T03:29:59.241Z,94693.00
2019-01-29T03:32:31.152Z,94702.00
2019-01-29T03:35:02.992Z,94702.00
2019-01-29T03:37:34.980Z,94709.00
2019-01-29T03:40:09.619Z,94718.00
2019-01-29T03:42:41.485Z,94720.00
2019-01-29T03:45:16.014Z,94717.00
2019-01-29T03:47:47.950Z,94714.00
2019-01-29T03:50:21.010Z,94709.00
2019-01-29T03:52:52.911Z,94720.00
2019-01-29T03:55:24.709Z,94722.00
2019-01-29T03:57:56.592Z,94721.00
2019-01-29T04:00:29.679Z,94726.00
2019-01-29T04:03:01.574Z,94719.00
2019-01-29T04:05:33.458Z,94714.00
2019-01-29T04:08:05.324Z,94714.00
2019-01-29T04:10:37.162Z,94723.00
2019-01-29T04:13:09.033Z,94730.00
2019-01-29T04:15:40.868Z,94727.00
2019-01-29T04:18:12.743Z,94728.00
2019-01-29T04:20:44.572Z,94725.00
2019-01-29T04:23:16.511Z,94723.00
2019-01-29T04:25:50.219Z,94731.00
2019-01-29T04:28:22.081Z,94731.00
2019-01-29T04:30:53.915Z,94738.00
2019-01-29T04:33:25.787Z,94730.00
2019-01-29T04:35:57.617Z,94723.00
2019-01-29T04:38:29.585Z,94722.00
2019-01-29T04:41:01.421Z,94733.00
2019-01-29T04:43:33.427Z,94742.00
2019-01-29T04:46:05.255Z,94742.00
2019-01-29T04:48:37.123Z,94743.00
2019-01-29T04:51:08.973Z,94744.00
2019-01-29T04:53:40.833Z,94742.00
2019-01-29T04:56:12.681Z,94742.00
2019-01-29T04:58:44.566Z,94746.00
2019-01-29T05:01:18.405Z,94745.00
2019-01-29T05:03:50.028Z,94755.00
2019-01-29T05:06:21.928Z,94743.00
2019-01-29T05:08:53.905Z,94762.00
2019-01-29T05:11:25.750Z,94746.00
2019-01-29T05:13:57.628Z,94760.00
2019-01-29T05:16:29.455Z,94756.00
2019-01-29T05:19:01.323Z,94769.00
2019-01-29T05:21:33.161Z,94764.00
2019-01-29T05:24:06.877Z,94763.00
2019-01-29T05:26:38.801Z,94766.00
2019-01-29T05:29:10.855Z,94765.00
2019-01-29T05:31:42.763Z,94767.00
2019-01-29T05:34:14.694Z,94778.00
2019-01-29T05:36:46.572Z,94772.00
2019-01-29T05:39:18.498Z,94788.00
2019-01-29T05:41:50.353Z,94783.00
2019-01-29T05:44:22.228Z,94791.00
2019-01-29T05:46:54.122Z,94787.00
2019-01-29T05:49:26.092Z,94791.00
2019-01-29T05:51:57.942Z,94784.00
2019-01-29T05:54:30.206Z,94784.00
2019-01-29T05:57:02.073Z,94794.00
2019-01-29T05:59:33.935Z,94800.00
2019-01-29T06:02:05.765Z,94804.00
2019-01-29T06:04:37.832Z,94807.00
2019-01-29T06:07:09.657Z,94796.00
2019-01-29T06:09:41.644Z,94812.00
2019-01-29T06:12:13.490Z,94800.00
2019-01-29T06:14:45.375Z,94806.00
2019-01-29T06:17:17.202Z,94808.00
2019-01-29T06:19:49.102Z,94801.00
2019-01-29T06:22:20.933Z,94811.00
2019-01-29T06:24:52.835Z,94823.00
2019-01-29T06:27:24.684Z,94814.00
2019-01-29T06:29:56.661Z,94823.00
2019-01-29T06:32:28.516Z,94821.00
2019-01-29T06:35:00.706Z,94823.00
2019-01-29T06:37:32.415Z,94823.00
2019-01-29T06:40:05.109Z,94823.00
2019-01-29T06:42:36.943Z,94820.00
2019-01-29T06:45:12.447Z,94833.00
2019-01-29T06:47:44.609Z,94822.00
2019-01-29T06:50:19.581Z,94827.00
2019-01-29T06:52:51.437Z,94824.00
2019-01-29T06:55:24.016Z,94831.00
2019-01-29T06:57:56.287Z,94831.00
2019-01-29T07:00:30.879Z,94835.00
2019-01-29T07:03:03.303Z,94837.00
2019-01-29T07:05:35.172Z,94829.00
2019-01-29T07:08:07.027Z,94838.00
2019-01-29T07:10:38.921Z,94838.00
2019-01-29T07:13:10.765Z,94838.00
2019-01-29T07:16:01.606Z,94841.00
2019-01-29T07:19:01.570Z,94834.00
2019-01-29T07:21:33.515Z,94837.00
2019-01-29T07:24:05.758Z,94837.00
2019-01-29T07:26:37.624Z,94844.00
2019-01-29T07:29:09.849Z,94849.00
2019-01-29T07:31:41.720Z,94844.00
2019-01-29T07:34:13.606Z,94847.00
2019-01-29T07:36:45.479Z,94839.00
2019-01-29T07:39:17.309Z,94837.00
2019-01-29T07:41:49.182Z,94832.00
2019-01-29T07:44:21.025Z,94834.00
2019-01-29T07:46:52.923Z,94839.00
2019-01-29T07:49:24.762Z,94843.00
2019-01-29T07:51:56.710Z,94840.00
2019-01-29T07:54:33.367Z,94851.00
2019-01-29T07:57:02.140Z,94848.00
2019-01-29T07:59:33.990Z,94844.00
2019-01-29T08:02:05.862Z,94855.00
2019-01-29T08:04:37.708Z,94841.00
2019-01-29T08:07:09.587Z,94844.00
2019-01-29T08:09:41.422Z,94847.00
2019-01-29T08:12:13.305Z,94850.00
2019-01-29T08:14:45.153Z,94843.00
2019-01-29T08:17:17.024Z,94847.00
2019-01-29T08:19:48.862Z,94851.00
2019-01-29T08:22:20.827Z,94853.00
2019-01-29T08:25:01.195Z,94854.00
2019-01-29T08:27:26.295Z,94855.00
2019-01-29T08:29:58.133Z,94864.00
2019-01-29T08:32:30.015Z,94858.00
2019-01-29T08:35:01.840Z,94862.00
2019-01-29T08:37:33.712Z,94867.00
2019-01-29T08:40:06.314Z,94864.00
2019-01-29T08:42:38.224Z,94848.00
2019-01-29T08:45:10.655Z,94848.00
2019-01-29T08:47:42.535Z,94860.00
2019-01-29T08:50:19.145Z,94860.00
2019-01-29T08:52:51.023Z,94851.00
2019-01-29T08:55:23.046Z,94851.00
2019-01-29T08:57:54.926Z,94848.00
2019-01-29T09:00:26.778Z,94843.00
2019-01-29T09:02:58.759Z,94841.00
2019-01-29T09:05:30.609Z,94833.00
2019-01-29T09:08:02.483Z,94842.00
2019-01-29T09:10:34.330Z,94835.00
2019-01-29T09:13:06.203Z,94835.00
2019-01-29T09:15:38.066Z,94836.00
2019-01-29T09:18:09.938Z,94842.00
2019-01-29T09:20:41.787Z,94851.00
2019-01-29T09:23:13.674Z,94842.00
2019-01-29T09:25:45.510Z,94844.00
2019-01-29T09:28:18.629Z,94840.00
2019-01-29T09:30:50.524Z,94837.00
2019-01-29T09:33:22.402Z,94846.00
2019-01-29T09:35:54.279Z,94840.00
2019-01-29T09:38:26.149Z,94854.00
2019-01-29T09:40:57.979Z,94848.00
2019-01-29T09:43:29.843Z,94795.00
2019-01-29T09:46:01.683Z,94854.00
2019-01-29T09:48:33.549Z,94860.00
2019-01-29T09:51:05.387Z,94857.00
2019-01-29T09:53:37.251Z,94863.00
2019-01-29T09:56:09.102Z,94860.00
2019-01-29T09:58:40.965Z,94847.00
2019-01-29T10:01:12.806Z,94853.00
2019-01-29T10:03:44.673Z,94842.00
2019-01-29T10:06:16.514Z,94837.00
2019-01-29T10:08:48.393Z,94846.00
2019-01-29T10:11:20.231Z,94833.00
2019-01-29T10:13:52.093Z,94831.00
2019-01-29T10:16:23.970Z,94829.00
2019-01-29T10:18:55.870Z,94826.00
2019-01-29T10:21:27.861Z,94821.00
2019-01-29T10:23:59.694Z,94830.00
2019-01-29T10:26:31.566Z,94813.00
2019-01-29T10:29:03.471Z,94809.00
2019-01-29T10:31:35.349Z,94815.00
2019-01-29T10:34:07.197Z,94805.00
2019-01-29T10:36:39.100Z,94807.00
2019-01-29T10:39:11.483Z,94801.00
2019-01-29T10:41:43.386Z,94808.00
2019-01-29T10:44:15.216Z,94799.00
2019-01-29T10:46:47.150Z,94795.00
2019-01-29T10:49:19.062Z,94794.00
2019-01-29T10:51:50.939Z,94791.00
2019-01-29T10:54:22.777Z,94774.00
2019-01-29T10:56:54.663Z,94772.00
2019-01-29T10:59:26.535Z,94765.00
2019-01-29T11:01:58.538Z,94756.00
2019-01-29T11:04:30.376Z,94742.00
2019-01-29T11:07:02.359Z,94734.00
2019-01-29T11:09:34.193Z,94724.00
2019-01-29T11:12:06.582Z,94724.00
2019-01-29T11:14:38.425Z,94726.00
2019-01-29T11:17:10.328Z,94725.00
2019-01-29T11:19:42.223Z,94732.00
2019-01-29T11:22:14.271Z,94725.00
2019-01-29T11:24:46.246Z,94726.00
2019-01-29T11:27:18.487Z,94725.00
2019-01-29T11:29:50.330Z,94716.00
2019-01-29T11:32:22.696Z,94713.00
2019-01-29T11:34:54.908Z,94704.00
2019-01-29T11:37:26.915Z,94701.00
2019-01-29T11:39:58.809Z,94696.00
2019-01-29T11:42:30.835Z,94704.00
2019-01-29T11:45:02.675Z,94702.00
2019-01-29T11:47:34.572Z,94694.00
2019-01-29T11:50:07.835Z,94684.00
2019-01-29T11:52:40.069Z,94672.00
2019-01-29T11:55:13.076Z,94673.00
2019-01-29T11:57:46.852Z,94666.00
2019-01-29T12:00:28.828Z,94655.00
2019-01-29T12:03:00.717Z,94658.00
2019-01-29T12:05:32.568Z,94655.00
2019-01-29T12:08:04.573Z,94648.00
2019-01-29T12:10:36.445Z,94634.00
2019-01-29T12:13:08.623Z,94624.00
2019-01-29T12:15:40.467Z,94619.00
2019-01-29T12:18:12.406Z,94609.00
2019-01-29T12:20:44.321Z,94600.00
2019-01-29T12:23:16.547Z,94598.00
2019-01-29T12:25:48.510Z,94587.00
2019-01-29T12:28:20.367Z,94588.00
2019-01-29T12:30:52.273Z,94590.00
2019-01-29T12:33:24.136Z,94575.00
2019-01-29T12:35:56.055Z,94584.00
2019-01-29T12:38:27.932Z,94599.00
2019-01-29T12:40:59.899Z,94588.00
2019-01-29T12:43:31.743Z,94599.00
2019-01-29T12:46:03.745Z,94594.00
2019-01-29T12:48:35.770Z,94590.00
2019-01-29T12:51:14.165Z,94578.00
2019-01-29T12:53:46.013Z,94578.00
2019-01-29T12:56:21.562Z,94582.00
2019-01-29T12:58:51.516Z,94581.00
2019-01-29T13:01:23.410Z,94575.00
2019-01-29T13:03:55.257Z,94574.00
2019-01-29T13:06:27.148Z,94579.00
2019-01-29T13:08:58.984Z,94575.00
2019-01-29T13:11:30.864Z,94581.00
2019-01-29T13:14:02.729Z,94573.00
2019-01-29T13:16:34.629Z,94576.00
2019-01-29T13:19:06.694Z,94574.00
2019-01-29T13:21:38.603Z,94572.00
2019-01-29T13:24:10.524Z,94562.00
2019-01-29T13:26:42.412Z,94552.00
2019-01-29T13:29:14.403Z,94546.00
2019-01-29T13:31:46.298Z,94550.00
2019-01-29T13:34:18.162Z,94555.00
2019-01-29T13:36:50.086Z,94547.00
2019-01-29T13:39:21.943Z,94546.00
2019-01-29T13:41:53.935Z,94528.00
2019-01-29T13:44:25.788Z,94536.00
2019-01-29T13:46:57.679Z,94535.00
2019-01-29T13:49:29.608Z,94530.00
2019-01-29T13:52:01.490Z,94524.00
2019-01-29T13:54:33.407Z,94520.00
2019-01-29T13:57:05.311Z,94517.00
2019-01-29T13:59:37.198Z,94526.00
2019-01-29T14:02:09.226Z,94515.00
2019-01-29T14:04:41.138Z,94519.00
2019-01-29T14:07:13.072Z,94510.00
2019-01-29T14:09:45.283Z,94503.00
2019-01-29T14:12:17.498Z,94508.00
2019-01-29T14:14:49.731Z,94504.00
2019-01-29T14:17:21.706Z,94494.00
2019-01-29T14:19:53.546Z,94487.00
2019-01-29T14:22:25.431Z,94490.00
2019-01-29T14:24:57.467Z,94485.00
2019-01-29T14:27:29.197Z,94488.00
2019-01-29T14:30:03.647Z,94489.00
2019-01-29T14:32:36.718Z,94486.00
2019-01-29T14:35:09.513Z,94489.00
2019-01-29T14:38:40.435Z,94486.00
2019-01-29T14:41:12.430Z,94492.00
2019-01-29T14:43:48.523Z,94486.00
2019-01-29T14:46:20.768Z,94486.00
2019-01-29T14:48:52.782Z,94478.00
2019-01-29T14:51:25.301Z,94479.00
2019-01-29T14:53:57.700Z,94479.00
2019-01-29T14:56:29.806Z,94478.00
2019-01-29T14:59:01.798Z,94475.00
2019-01-29T15:01:34.292Z,94472.00
2019-01-29T15:04:06.270Z,94479.00
2019-01-29T15:06:38.638Z,94472.00
2019-01-29T15:09:13.588Z,94470.00
2019-01-29T15:11:45.812Z,94476.00
2019-01-29T15:14:17.900Z,94463.00
2019-01-29T15:17:05.844Z,94469.00
2019-01-29T15:19:38.036Z,94463.00
2019-01-29T15:22:10.808Z,94463.00
2019-01-29T15:24:42.987Z,94455.00
2019-01-29T15:27:14.911Z,94456.00
2019-01-29T15:29:47.024Z,94453.00
2019-01-29T15:32:19.187Z,94462.00
2019-01-29T15:34:51.079Z,94448.00
2019-01-29T15:37:23.914Z,94452.00
2019-01-29T15:39:56.964Z,94445.00
2019-01-29T15:42:29.394Z,94447.00
2019-01-29T15:45:02.267Z,94436.00
2019-01-29T15:47:34.849Z,94436.00
2019-01-29T15:50:08.188Z,94448.00
2019-01-29T15:52:48.441Z,94438.00
2019-01-29T15:55:16.880Z,94427.00
2019-01-29T15:57:52.011Z,94417.00
2019-01-29T16:00:31.126Z,94422.00
2019-01-29T16:03:03.646Z,94406.00
2019-01-29T16:05:36.314Z,94411.00
2019-01-29T16:08:10.529Z,94414.00
2019-01-29T16:10:44.759Z,94403.00
2019-01-29T16:13:19.500Z,94406.00
2019-01-29T16:15:52.523Z,94402.00
2019-01-29T16:18:25.565Z,94411.00
2019-01-29T16:20:57.986Z,94410.00
2019-01-29T16:23:31.177Z,94398.00
2019-01-29T16:26:03.882Z,94393.00
2019-01-29T16:28:36.905Z,94394.00
2019-01-29T16:31:09.859Z,94400.00
2019-01-29T16:33:44.448Z,94391.00
2019-01-29T16:36:21.579Z,94385.00
2019-01-29T16:38:56.975Z,94382.00
2019-01-29T16:41:34.019Z,94377.00
2019-01-29T16:44:09.256Z,94382.00
2019-01-29T16:46:46.530Z,94374.00
2019-01-29T16:49:22.791Z,94376.00
2019-01-29T16:51:57.418Z,94374.00
2019-01-29T16:54:33.081Z,94366.00
2019-01-29T16:57:07.009Z,94361.00
2019-01-29T16:59:40.249Z,94363.00
2019-01-29T17:02:19.051Z,94360.00
2019-01-29T17:04:53.021Z,94359.00
2019-01-29T17:07:27.664Z,94355.00
2019-01-29T17:10:03.333Z,94358.00
2019-01-29T17:12:38.655Z,94345.00
2019-01-29T17:15:20.184Z,94348.00
2019-01-29T17:17:56.757Z,94340.00
2019-01-29T17:20:36.865Z,94340.00
2019-01-29T17:23:13.720Z,94334.00
2019-01-29T17:25:52.511Z,94326.00
2019-01-29T17:28:27.481Z,94327.00
2019-01-29T17:31:05.080Z,94321.00
2019-01-29T17:33:42.182Z,94313.00
2019-01-29T17:36:20.855Z,94314.00
2019-01-29T17:38:57.436Z,94307.00
2019-01-29T17:41:33.087Z,94307.00
2019-01-29T17:44:10.417Z,94303.00
2019-01-29T17:46:46.548Z,94295.00
2019-01-29T17:49:21.236Z,94287.00
2019-01-29T17:51:55.569Z,94279.00
2019-01-29T17:54:35.875Z,94286.00
2019-01-29T17:57:12.234Z,94281.00
2019-01-29T17:59:48.107Z,94285.00
2019-01-29T18:02:22.431Z,94274.00
2019-01-29T18:05:00.531Z,94285.00
2019-01-29T18:07:36.100Z,94270.00
2019-01-29T18:10:13.378Z,94263.00
2019-01-29T18:12:48.325Z,94266.00
2019-01-29T18:15:26.725Z,94252.00
2019-01-29T18:18:01.241Z,94257.00
2019-01-29T18:20:39.383Z,94255.00
2019-01-29T18:23:15.196Z,94253.00
2019-01-29T18:25:50.939Z,94249.00
2019-01-29T18:28:27.401Z,94247.00
2019-01-29T18:31:04.812Z,94236.00
2019-01-29T18:33:42.677Z,94225.00
2019-01-29T18:36:19.511Z,94223.00
2019-01-29T18:38:56.891Z,94228.00
2019-01-29T18:41:34.186Z,94214.00
2019-01-29T18:44:12.606Z,94211.00
2019-01-29T18:46:49.145Z,94225.00
2019-01-29T18:49:26.716Z,94209.00
2019-01-29T18:52:04.774Z,94214.00
2019-01-29T18:54:43.122Z,94206.00
2019-01-29T18:57:18.700Z,94193.00
2019-01-29T18:59:55.279Z,94204.00
2019-01-29T19:02:32.428Z,94196.00
2019-01-29T19:05:11.181Z,94196.00
2019-01-29T19:07:46.328Z,94203.00
2019-01-29T19:10:24.645Z,94195.00
2019-01-29T19:13:01.859Z,94193.00
2019-01-29T19:15:48.608Z,94184.00
2019-01-29T19:18:28.558Z,94186.00
2019-01-29T19:21:07.330Z,94187.00
2019-01-29T19:23:45.878Z,94185.00
2019-01-29T19:26:23.948Z,94173.00
2019-01-29T19:29:01.923Z,94169.00
2019-01-29T19:31:42.581Z,94173.00
2019-01-29T19:34:21.068Z,94169.00
2019-01-29T19:36:59.575Z,94173.00
2019-01-29T19:39:38.536Z,94156.00
2019-01-29T19:42:27.102Z,94153.00
2019-01-29T19:44:56.255Z,94155.00
2019-01-29T19:47:32.990Z,94151.00
2019-01-29T19:50:14.874Z,94152.00
2019-01-29T19:52:52.602Z,94149.00
2019-01-29T19:55:30.036Z,94145.00
2019-01-29T19:58:09.189Z,94137.00
2019-01-29T20:00:47.941Z,94129.00
2019-01-29T20:03:27.010Z,94153.00
2019-01-29T20:06:05.101Z,94126.00
2019-01-29T20:08:43.341Z,94124.00
2019-01-29T20:11:23.358Z,94121.00
2019-01-29T20:14:01.579Z,94112.00
2019-01-29T20:16:38.902Z,94109.00
2019-01-29T20:19:16.212Z,94109.00
2019-01-29T20:21:52.206Z,94087.00
2019-01-29T20:24:28.797Z,94095.00
2019-01-29T20:27:05.669Z,94092.00
2019-01-29T20:29:40.440Z,94090.00
2019-01-29T20:32:16.033Z,94087.00
2019-01-29T20:34:50.076Z,94087.00
2019-01-29T20:37:24.038Z,94086.00
2019-01-29T20:39:57.483Z,94076.00
2019-01-29T20:42:31.053Z,94089.00
2019-01-29T20:45:03.190Z,94092.00
2019-01-29T20:47:36.338Z,94098.00
2019-01-29T20:50:14.113Z,94073.00
2019-01-29T20:52:46.214Z,94062.00
2019-01-29T20:55:18.263Z,94066.00
2019-01-29T20:57:50.464Z,94059.00
2019-01-29T21:00:27.731Z,94054.00
2019-01-29T21:03:00.016Z,94054.00
2019-01-29T21:05:32.166Z,94046.00
2019-01-29T21:08:04.039Z,94045.00
2019-01-29T21:10:35.946Z,94045.00
2019-01-29T21:13:07.841Z,94044.00
2019-01-29T21:15:39.843Z,94039.00
2019-01-29T21:18:11.725Z,94031.00
2019-01-29T21:20:43.670Z,94028.00
2019-01-29T21:23:15.626Z,94024.00
2019-01-29T21:25:47.527Z,94015.00
2019-01-29T21:28:19.488Z,94008.00
2019-01-29T21:30:53.505Z,94010.00
2019-01-29T21:33:25.385Z,94001.00
2019-01-29T21:35:57.338Z,93992.00
2019-01-29T21:38:29.225Z,93996.00
2019-01-29T21:41:03.505Z,93989.00
2019-01-29T21:43:35.387Z,93981.00
2019-01-29T21:46:07.232Z,93981.00
2019-01-29T21:48:40.246Z,93980.00
2019-01-29T21:51:12.126Z,93969.00
2019-01-29T21:53:44.039Z,93966.00
2019-01-29T21:56:16.054Z,93976.00
2019-01-29T21:58:48.143Z,93955.00
2019-01-29T22:01:20.742Z,93954.00
2019-01-29T22:03:52.628Z,93941.00
2019-01-29T22:06:24.507Z,93950.00
2019-01-29T22:08:56.484Z,93954.00
2019-01-29T22:11:28.426Z,93946.00
2019-01-29T22:14:00.671Z,93925.00
2019-01-29T22:16:32.991Z,93928.00
2019-01-29T22:19:05.040Z,93929.00
2019-01-29T22:21:36.878Z,93921.00
2019-01-29T22:24:08.955Z,93924.00
2019-01-29T22:26:40.809Z,93913.00
2019-01-29T22:29:12.703Z,93912.00
2019-01-29T22:31:44.560Z,93920.00
2019-01-29T22:34:16.458Z,93908.00
2019-01-29T22:36:51.040Z,93911.00
2019-01-29T22:39:22.921Z,93907.00
2019-01-29T22:41:54.775Z,93902.00
2019-01-29T22:44:26.665Z,93898.00
2019-01-29T22:46:59.008Z,93905.00
2019-01-29T22:49:30.995Z,93900.00
2019-01-29T22:52:02.894Z,93894.00
2019-01-29T22:54:34.773Z,93888.00
2019-01-29T22:57:07.301Z,93886.00
2019-01-29T22:59:39.210Z,93877.00
2019-01-29T23:02:11.234Z,93880.00
2019-01-29T23:04:47.169Z,93867.00
2019-01-29T23:07:26.572Z,93868.00
2019-01-29T23:09:58.460Z,93867.00
2019-01-29T23:12:30.331Z,93859.00
2019-01-29T23:15:02.402Z,93853.00
2019-01-29T23:17:34.290Z,93856.00
2019-01-29T23:20:07.963Z,93844.00
2019-01-29T23:22:39.881Z,93843.00
2019-01-29T23:25:12.580Z,93838.00
2019-01-29T23:27:44.440Z,93842.00
2019-01-29T23:30:17.727Z,93838.00
2019-01-29T23:32:49.754Z,93830.00
2019-01-29T23:35:21.757Z,93820.00
2019-01-29T23:37:53.634Z,93829.00
2019-01-29T23:40:25.552Z,93829.00
2019-01-29T23:42:57.321Z,93823.00
2019-01-29T23:45:29.198Z,93810.00
2019-01-29T23:48:01.168Z,93818.00
2019-01-29T23:50:33.291Z,93820.00
2019-01-29T23:53:05.351Z,93811.00
2019-01-29T23:55:37.266Z,93800.00
2019-01-29T23:58:09.285Z,93796.00
